createdAt,value
2019-02-04T00:00:57.784Z,98017.84
2019-02-04T00:03:29.111Z,98014.31
2019-02-04T00:05:59.468Z,98013.05
2019-02-04T00:08:31.831Z,98016.73
2019-02-04T00:11:02.584Z,98023.16
2019-02-04T00:13:33.204Z,98021.55
2019-02-04T00:16:04.051Z,98017.53
2019-02-04T00:18:35.524Z,98021.89
2019-02-04T00:21:18.112Z,98021.54
2019-02-04T00:23:48.933Z,98025.25
2019-02-04T00:26:20.145Z,98026.37
2019-02-04T00:28:51.825Z,98030.73
2019-02-04T00:31:22.842Z,98026.39
2019-02-04T00:33:53.616Z,98030.08
2019-02-04T00:36:38.618Z,98036.20
2019-02-04T00:39:11.360Z,98036.36
2019-02-04T00:42:06.483Z,98035.71
2019-02-04T00:44:37.842Z,98043.89
2019-02-04T00:47:08.246Z,98043.59
2019-02-04T00:49:39.639Z,98045.38
2019-02-04T00:52:10.247Z,98046.64
2019-02-04T00:54:41.654Z,98052.42
2019-02-04T00:57:12.407Z,98049.23
2019-02-04T00:59:43.736Z,98053.55
2019-02-04T01:02:14.543Z,98053.72
2019-02-04T01:04:45.382Z,98054.05
2019-02-04T01:07:16.396Z,98058.39
2019-02-04T01:09:47.422Z,98059.17
2019-02-04T01:12:17.813Z,98066.74
2019-02-04T01:14:49.320Z,98070.58
2019-02-04T01:17:19.647Z,98071.88
2019-02-04T01:19:51.092Z,98080.89
2019-02-04T01:22:22.090Z,98077.98
2019-02-04T01:24:53.028Z,98076.70
2019-02-04T01:27:24.190Z,98079.58
2019-02-04T01:29:54.912Z,98076.53
2019-02-04T01:32:25.870Z,98083.79
2019-02-04T01:34:56.666Z,98082.97
2019-02-04T01:37:27.707Z,98077.19
2019-02-04T01:39:59.392Z,98074.93
2019-02-04T01:42:30.733Z,98073.47
2019-02-04T01:45:02.010Z,98073.63
2019-02-04T01:47:32.622Z,98072.20
2019-02-04T01:50:03.769Z,98067.05
2019-02-04T01:52:35.133Z,98070.56
2019-02-04T01:55:07.544Z,98065.28
2019-02-04T01:57:38.240Z,98064.31
2019-02-04T02:00:20.749Z,98065.59
2019-02-04T03:02:05.747Z,98066.30
2019-02-04T03:04:36.834Z,98059.74
2019-02-04T03:07:07.792Z,98063.77
2019-02-04T03:09:38.561Z,98065.38
2019-02-04T03:12:10.399Z,98068.24
2019-02-04T03:14:42.030Z,98060.81
2019-02-04T03:17:13.053Z,98070.69
2019-02-04T03:19:48.932Z,98077.06
2019-02-04T03:22:21.118Z,98073.63
2019-02-04T03:24:52.128Z,98073.25
2019-02-04T03:27:23.229Z,98080.82
2019-02-04T03:29:54.595Z,98085.41
2019-02-04T03:32:25.222Z,98086.53
2019-02-04T03:34:56.964Z,98079.06
2019-02-04T03:37:27.272Z,98089.45
2019-02-04T03:39:59.478Z,98085.25
2019-02-04T03:42:30.488Z,98084.29
2019-02-04T03:45:01.189Z,98085.53
2019-02-04T03:47:32.500Z,98093.06
2019-02-04T03:50:03.573Z,98090.44
2019-02-04T03:52:34.614Z,98092.96
2019-02-04T03:55:05.597Z,98093.13
2019-02-04T03:57:36.590Z,98096.16
2019-02-04T04:00:14.015Z,98098.30
2019-02-04T04:02:45.436Z,98103.64
2019-02-04T04:05:16.452Z,98110.36
2019-02-04T04:07:47.391Z,98117.44
2019-02-04T04:10:18.671Z,98117.60
2019-02-04T04:12:49.796Z,98121.13
2019-02-04T04:15:20.714Z,98125.95
2019-02-04T04:17:51.558Z,98127.95
2019-02-04T04:20:23.268Z,98131.96
2019-02-04T04:22:54.817Z,98133.92
2019-02-04T04:25:25.947Z,98135.88
2019-02-04T04:27:57.238Z,98133.48
2019-02-04T04:30:28.607Z,98133.52
2019-02-04T04:32:59.892Z,98136.03
2019-02-04T04:35:31.171Z,98131.66
2019-02-04T04:38:02.131Z,98134.50
2019-02-04T04:40:33.524Z,98139.63
2019-02-04T04:43:04.958Z,98141.52
2019-02-04T04:45:37.412Z,98144.20
2019-02-04T04:48:09.070Z,98147.14
2019-02-04T04:50:40.405Z,98145.02
2019-02-04T04:53:11.434Z,98144.02
2019-02-04T04:55:42.094Z,98143.64
2019-02-04T04:58:12.854Z,98146.25
2019-02-04T05:00:43.647Z,98148.59
2019-02-04T05:03:14.355Z,98144.09
2019-02-04T05:05:45.345Z,98146.39
2019-02-04T05:08:16.087Z,98138.83
2019-02-04T05:10:47.221Z,98138.28
2019-02-04T05:13:18.618Z,98140.59
2019-02-04T05:15:56.070Z,98148.69
2019-02-04T05:18:37.471Z,98155.09
2019-02-04T05:20:59.505Z,98152.19
2019-02-04T05:23:30.321Z,98159.00
2019-02-04T05:26:00.972Z,98159.31
2019-02-04T05:28:32.744Z,98162.86
2019-02-04T05:31:04.815Z,98158.48
2019-02-04T05:33:36.480Z,98160.29
2019-02-04T05:36:07.154Z,98159.01
2019-02-04T05:38:37.868Z,98170.90
2019-02-04T05:41:08.881Z,98163.22
2019-02-04T05:43:39.510Z,98155.70
2019-02-04T05:46:27.548Z,98161.09
2019-02-04T05:48:58.631Z,98158.48
2019-02-04T05:51:29.968Z,98158.91
2019-02-04T05:54:06.041Z,98155.05
2019-02-04T05:56:37.507Z,98154.41
2019-02-04T05:59:08.107Z,98154.80
2019-02-04T06:01:39.319Z,98151.47
2019-02-04T06:04:25.666Z,98153.47
2019-02-04T06:06:57.573Z,98157.27
2019-02-04T06:09:28.625Z,98161.92
2019-02-04T06:11:59.637Z,98155.96
2019-02-04T06:14:30.389Z,98151.88
2019-02-04T06:17:39.275Z,98152.12
2019-02-04T06:20:13.793Z,98160.13
2019-02-04T06:22:45.245Z,98157.80
2019-02-04T06:25:16.118Z,98153.64
2019-02-04T06:27:46.938Z,98153.00
2019-02-04T06:30:17.945Z,98150.86
2019-02-04T06:32:49.399Z,98153.75
2019-02-04T06:35:21.590Z,98153.51
2019-02-04T06:37:52.473Z,98155.09
2019-02-04T06:40:23.473Z,98161.16
2019-02-04T06:42:55.199Z,98169.72
2019-02-04T06:45:25.985Z,98165.35
2019-02-04T06:47:57.300Z,98166.41
2019-02-04T06:50:28.524Z,98152.70
2019-02-04T06:52:59.589Z,98158.85
2019-02-04T06:55:33.435Z,98153.09
2019-02-04T06:58:05.030Z,98156.29
2019-02-04T07:00:35.648Z,98159.55
2019-02-04T07:03:06.585Z,98159.58
2019-02-04T07:05:43.973Z,98156.22
2019-02-04T07:08:10.318Z,98159.64
2019-02-04T07:10:45.279Z,98157.70
2019-02-04T07:13:15.920Z,98159.22
2019-02-04T07:15:46.939Z,98158.36
2019-02-04T07:18:18.490Z,98165.61
2019-02-04T07:20:49.862Z,98175.09
2019-02-04T07:23:20.861Z,98181.95
2019-02-04T07:25:51.186Z,98186.72
2019-02-04T07:28:22.430Z,98186.03
2019-02-04T07:30:52.752Z,98191.62
2019-02-04T07:33:24.511Z,98190.83
2019-02-04T07:35:55.160Z,98195.37
2019-02-04T07:38:26.542Z,98198.29
2019-02-04T07:40:57.169Z,98200.67
2019-02-04T07:43:28.641Z,98194.13
2019-02-04T07:45:59.454Z,98191.62
2019-02-04T07:48:29.796Z,98187.88
2019-02-04T07:51:01.053Z,98188.61
2019-02-04T07:53:31.380Z,98180.05
2019-02-04T07:56:04.182Z,98179.83
2019-02-04T07:58:35.225Z,98167.60
2019-02-04T08:01:06.239Z,98157.05
2019-02-04T08:03:36.567Z,98157.25
2019-02-04T08:06:07.235Z,98156.75
2019-02-04T08:08:38.263Z,98158.55
2019-02-04T08:11:08.643Z,98158.38
2019-02-04T08:13:40.002Z,98150.84
2019-02-04T08:16:13.333Z,98142.43
2019-02-04T08:18:46.162Z,98126.02
2019-02-04T08:21:17.274Z,98120.17
2019-02-04T08:23:48.322Z,98114.98
2019-02-04T08:26:20.056Z,98120.30
2019-02-04T08:28:51.334Z,98128.00
2019-02-04T08:31:23.180Z,98123.53
2019-02-04T08:33:54.622Z,98129.80
2019-02-04T08:36:27.204Z,98125.39
2019-02-04T08:38:58.388Z,98135.31
2019-02-04T08:41:29.869Z,98131.72
2019-02-04T08:44:00.928Z,98134.41
2019-02-04T08:46:31.691Z,98135.23
2019-02-04T08:49:02.870Z,98129.33
2019-02-04T08:51:34.706Z,98130.74
2019-02-04T08:54:05.925Z,98136.63
2019-02-04T08:56:37.078Z,98143.85
2019-02-04T08:59:08.957Z,98151.38
2019-02-04T09:01:39.978Z,98144.06
2019-02-04T09:04:10.673Z,98138.66
2019-02-04T09:06:41.021Z,98146.86
2019-02-04T09:09:13.536Z,98151.95
2019-02-04T09:11:44.647Z,98153.06
2019-02-04T09:14:16.105Z,98150.53
2019-02-04T09:16:47.650Z,98149.28
2019-02-04T09:19:18.066Z,98150.48
2019-02-04T09:21:49.530Z,98152.31
2019-02-04T09:24:20.834Z,98153.60
2019-02-04T09:26:51.159Z,98152.93
2019-02-04T09:29:22.586Z,98149.73
2019-02-04T09:31:53.258Z,98147.16
2019-02-04T09:34:23.907Z,98136.52
2019-02-04T09:36:54.567Z,98137.97
2019-02-04T09:39:26.827Z,98134.06
2019-02-04T09:41:57.936Z,98132.97
2019-02-04T09:44:28.981Z,98131.52
2019-02-04T09:47:01.457Z,98135.03
2019-02-04T09:49:32.899Z,98130.47
2019-02-04T09:52:03.491Z,98126.58
2019-02-04T09:54:34.201Z,98134.70
2019-02-04T09:57:05.280Z,98137.18
2019-02-04T09:59:35.939Z,98133.10
2019-02-04T10:02:07.016Z,98129.41
2019-02-04T10:04:39.355Z,98130.41
2019-02-04T10:07:10.046Z,98133.12
2019-02-04T10:09:40.999Z,98136.74
2019-02-04T10:12:11.665Z,98129.86
2019-02-04T10:14:42.728Z,98125.73
2019-02-04T10:17:14.985Z,98122.54
2019-02-04T10:19:48.132Z,98125.19
2019-02-04T10:22:19.824Z,98120.76
2019-02-04T10:24:51.175Z,98115.94
2019-02-04T10:27:22.576Z,98116.20
2019-02-04T10:29:56.077Z,98105.76
2019-02-04T10:32:26.845Z,98103.18
2019-02-04T10:34:58.327Z,98098.61
2019-02-04T10:37:29.024Z,98106.47
2019-02-04T10:40:00.272Z,98096.42
2019-02-04T10:42:31.431Z,98108.20
2019-02-04T10:45:02.195Z,98101.93
2019-02-04T10:47:32.912Z,98096.93
2019-02-04T10:50:03.754Z,98093.58
2019-02-04T10:52:34.347Z,98094.91
2019-02-04T10:55:06.274Z,98090.71
2019-02-04T10:57:40.591Z,98097.20
2019-02-04T11:00:14.112Z,98098.13
2019-02-04T11:02:44.988Z,98096.85
2019-02-04T11:05:20.210Z,98097.67
2019-02-04T11:07:50.989Z,98098.56
2019-02-04T11:10:25.047Z,98100.42
2019-02-04T11:12:56.089Z,98087.05
2019-02-04T11:15:27.442Z,98071.94
2019-02-04T11:17:58.822Z,98066.16
2019-02-04T11:20:31.529Z,98063.45
2019-02-04T11:23:03.186Z,98066.61
2019-02-04T11:25:33.932Z,98053.88
2019-02-04T11:28:06.028Z,98050.62
2019-02-04T11:31:11.503Z,98045.70
2019-02-04T11:33:42.825Z,98048.81
2019-02-04T11:36:14.018Z,98042.48
2019-02-04T11:38:45.545Z,98040.79
2019-02-04T11:41:16.180Z,98031.48
2019-02-04T11:43:47.208Z,98026.55
2019-02-04T11:46:18.468Z,98021.28
2019-02-04T11:49:05.073Z,98027.65
2019-02-04T11:51:36.343Z,98023.30
2019-02-04T11:54:07.691Z,98014.78
2019-02-04T11:56:38.767Z,98001.64
2019-02-04T11:59:09.505Z,98002.53
2019-02-04T12:01:40.445Z,98010.30
2019-02-04T12:04:11.584Z,98006.88
2019-02-04T12:06:42.323Z,98000.97
2019-02-04T12:09:13.997Z,97998.92
2019-02-04T12:11:44.613Z,97996.53
2019-02-04T12:14:14.975Z,97998.96
2019-02-04T12:16:45.678Z,97991.90
2019-02-04T12:19:15.997Z,97990.50
2019-02-04T12:21:47.419Z,97978.06
2019-02-04T12:24:18.498Z,97978.84
2019-02-04T12:26:49.919Z,97975.73
2019-02-04T12:29:20.323Z,97978.19
2019-02-04T12:31:51.295Z,97980.55
2019-02-04T12:34:22.918Z,97980.16
2019-02-04T12:37:01.077Z,97975.48
2019-02-04T12:39:31.843Z,97968.50
2019-02-04T12:42:02.824Z,97959.15
2019-02-04T12:44:33.904Z,97963.40
2019-02-04T12:47:43.609Z,97958.70
2019-02-04T12:50:14.307Z,97953.26
2019-02-04T12:52:44.908Z,97951.39
2019-02-04T12:55:19.763Z,97949.36
2019-02-04T12:57:51.083Z,97950.41
2019-02-04T13:00:25.419Z,97937.48
2019-02-04T13:02:56.091Z,97922.44
2019-02-04T13:05:36.565Z,97924.14
2019-02-04T13:08:09.600Z,97926.17
2019-02-04T13:10:41.536Z,97922.78
2019-02-04T13:13:15.552Z,97920.16
2019-02-04T13:15:46.973Z,97923.85
2019-02-04T13:18:18.320Z,97911.31
2019-02-04T13:20:52.811Z,97901.64
2019-02-04T13:23:24.299Z,97899.00
2019-02-04T13:25:56.578Z,97896.09
2019-02-04T13:28:28.338Z,97894.28
2019-02-04T13:31:06.341Z,97887.83
2019-02-04T13:33:37.262Z,97887.64
2019-02-04T13:36:07.883Z,97881.47
2019-02-04T13:38:38.926Z,97889.63
2019-02-04T13:41:11.175Z,97884.88
2019-02-04T13:43:42.316Z,97880.73
2019-02-04T13:46:13.271Z,97877.66
2019-02-04T13:48:44.209Z,97865.56
2019-02-04T13:51:15.261Z,97875.06
2019-02-04T13:53:46.514Z,97868.33
2019-02-04T13:56:17.770Z,97872.95
2019-02-04T13:58:48.228Z,97871.75
2019-02-04T14:01:21.144Z,97871.35
2019-02-04T14:03:52.726Z,97866.48
2019-02-04T14:06:23.784Z,97867.74
2019-02-04T14:08:55.421Z,97865.61
2019-02-04T14:11:26.176Z,97864.16
2019-02-04T14:13:56.984Z,97863.75
2019-02-04T14:16:27.957Z,97861.92
2019-02-04T14:18:58.687Z,97866.89
2019-02-04T14:21:29.824Z,97862.28
2019-02-04T14:24:00.723Z,97866.02
2019-02-04T14:27:08.782Z,97868.35
2019-02-04T14:29:39.841Z,97868.20
2019-02-04T14:32:11.267Z,97866.64
2019-02-04T14:34:42.599Z,97866.91
2019-02-04T14:37:13.495Z,97865.62
2019-02-04T14:39:44.551Z,97868.61
2019-02-04T14:42:18.441Z,97865.13
2019-02-04T14:45:34.572Z,97868.14
2019-02-04T14:49:05.609Z,97866.87
2019-02-04T14:52:30.546Z,97865.44
2019-02-04T14:55:59.522Z,97866.67
2019-02-04T14:59:24.333Z,97869.16
2019-02-04T15:03:00.905Z,97869.72
2019-02-04T15:06:28.571Z,97866.18
2019-02-04T15:09:40.977Z,97861.33
2019-02-04T15:13:08.503Z,97858.28
2019-02-04T15:16:40.633Z,97857.46
2019-02-04T15:20:25.496Z,97859.14
2019-02-04T15:23:32.168Z,97862.34
2019-02-04T15:27:09.285Z,97863.75
2019-02-04T15:30:47.019Z,97874.34
2019-02-04T15:34:32.792Z,97884.24
2019-02-04T15:37:31.185Z,97878.34
2019-02-04T15:40:26.349Z,97884.51
2019-02-04T15:43:39.673Z,97884.58
2019-02-04T15:46:58.264Z,97888.58
2019-02-04T15:50:19.295Z,97889.45
2019-02-04T15:52:50.018Z,97902.41
2019-02-04T15:55:23.490Z,97905.52
2019-02-04T15:57:55.259Z,97905.22
2019-02-04T16:00:31.579Z,97905.47
2019-02-04T16:03:03.050Z,97911.50
2019-02-04T16:05:35.540Z,97912.72
2019-02-04T16:08:06.637Z,97913.42
2019-02-04T16:10:39.025Z,97906.12
2019-02-04T16:13:09.725Z,97907.64
2019-02-04T16:15:50.417Z,97917.09
2019-02-04T16:18:21.532Z,97916.08
2019-02-04T16:20:52.824Z,97923.86
2019-02-04T16:23:32.460Z,97925.67
2019-02-04T16:26:03.910Z,97931.05
2019-02-04T16:28:34.969Z,97931.11
2019-02-04T16:31:06.248Z,97930.20
2019-02-04T16:33:36.878Z,97924.91
2019-02-04T16:36:08.184Z,97930.73
2019-02-04T16:38:39.634Z,97936.88
2019-02-04T16:41:10.013Z,97942.52
2019-02-04T16:43:41.997Z,97937.52
2019-02-04T16:46:12.905Z,97944.10
2019-02-04T16:48:43.889Z,97939.91
2019-02-04T16:51:14.938Z,97940.05
2019-02-04T16:53:46.437Z,97944.27
2019-02-04T16:56:18.796Z,97953.42
2019-02-04T16:58:49.822Z,97954.09
2019-02-04T17:01:32.761Z,97955.89
2019-02-04T17:04:03.836Z,97959.58
2019-02-04T17:06:34.837Z,97959.27
2019-02-04T17:09:08.558Z,97964.08
2019-02-04T17:11:39.924Z,97960.88
2019-02-04T17:14:11.230Z,97956.05
2019-02-04T17:16:42.597Z,97960.84
2019-02-04T17:19:12.900Z,97967.77
2019-02-04T17:21:43.630Z,97966.95
2019-02-04T17:24:14.666Z,97967.59
2019-02-04T17:26:45.980Z,97972.72
2019-02-04T17:29:17.224Z,97976.25
2019-02-04T17:31:48.193Z,97980.09
2019-02-04T17:34:19.290Z,97980.74
2019-02-04T17:36:50.632Z,97983.16
2019-02-04T17:39:21.725Z,97984.44
2019-02-04T17:41:53.083Z,97981.20
2019-02-04T17:44:24.454Z,97979.60
2019-02-04T17:46:55.264Z,97984.58
2019-02-04T17:49:25.569Z,97981.97
2019-02-04T17:51:56.666Z,97986.31
2019-02-04T17:54:27.953Z,97978.90
2019-02-04T17:56:58.911Z,97986.79
2019-02-04T17:59:30.054Z,97984.23
2019-02-04T18:02:00.814Z,97989.25
2019-02-04T18:04:32.303Z,97996.96
2019-02-04T18:07:03.157Z,97994.04
2019-02-04T18:09:33.812Z,97999.50
2019-02-04T18:12:04.849Z,97997.61
2019-02-04T18:14:36.216Z,98000.77
2019-02-04T18:17:07.472Z,97999.33
2019-02-04T18:19:38.468Z,97995.15
2019-02-04T18:22:10.328Z,97992.28
2019-02-04T18:24:41.381Z,97996.83
2019-02-04T18:27:13.226Z,97988.42
2019-02-04T18:29:44.090Z,97997.45
2019-02-04T18:32:15.018Z,97996.33
2019-02-04T18:34:47.581Z,97996.02
2019-02-04T18:37:19.047Z,98003.09
2019-02-04T18:39:50.036Z,98003.59
2019-02-04T18:42:22.241Z,98002.78
2019-02-04T18:44:53.746Z,97999.58
2019-02-04T18:47:24.389Z,97999.89
2019-02-04T18:49:55.435Z,98002.17
2019-02-04T18:52:26.831Z,98002.95
2019-02-04T18:54:58.186Z,98008.27
2019-02-04T18:57:28.982Z,98004.72
2019-02-04T18:59:59.345Z,98006.49
2019-02-04T19:02:29.709Z,98005.05
2019-02-04T19:05:00.688Z,98007.64
2019-02-04T19:07:30.987Z,98002.67
2019-02-04T19:10:02.120Z,98003.82
2019-02-04T19:12:33.147Z,97999.79
2019-02-04T19:15:04.558Z,97997.36
2019-02-04T19:17:36.314Z,97996.08
2019-02-04T19:20:10.819Z,97992.08
2019-02-04T19:22:42.105Z,97994.14
2019-02-04T19:25:13.255Z,97989.64
2019-02-04T19:27:44.241Z,98001.89
2019-02-04T19:30:46.126Z,97997.86
2019-02-04T19:33:17.563Z,97996.74
2019-02-04T19:35:49.717Z,97994.98
2019-02-04T19:38:20.899Z,98001.09
2019-02-04T19:40:51.963Z,98002.69
2019-02-04T19:43:23.375Z,98005.57
2019-02-04T19:45:54.118Z,97999.15
2019-02-04T19:48:26.529Z,97997.52
2019-02-04T19:50:58.287Z,97999.91
2019-02-04T19:53:54.589Z,98000.89
2019-02-04T19:56:25.431Z,98000.12
2019-02-04T19:59:00.587Z,98011.22
2019-02-04T20:01:50.644Z,98009.30
2019-02-04T20:04:21.788Z,98009.77
2019-02-04T20:06:57.562Z,98011.86
2019-02-04T20:09:30.946Z,98011.69
2019-02-04T20:12:02.391Z,98018.77
2019-02-04T20:14:37.939Z,98017.14
2019-02-04T20:17:08.271Z,98016.66
2019-02-04T20:19:40.030Z,98014.76
2019-02-04T20:22:16.457Z,98017.70
2019-02-04T20:24:48.446Z,98023.52
2019-02-04T20:27:21.182Z,98025.42
2019-02-04T20:29:52.254Z,98014.97
2019-02-04T20:32:32.636Z,98013.64
2019-02-04T20:35:12.053Z,98015.75
2019-02-04T20:37:45.675Z,98016.05
2019-02-04T20:40:21.081Z,98019.78
2019-02-04T20:42:55.540Z,98016.58
2019-02-04T20:45:35.273Z,98025.28
2019-02-04T20:48:17.481Z,98019.98
2019-02-04T20:51:00.037Z,98021.89
2019-02-04T20:53:37.107Z,98020.89
2019-02-04T20:56:13.232Z,98014.01
2019-02-04T20:58:50.089Z,98015.96
2019-02-04T21:01:27.226Z,98021.28
2019-02-04T21:03:59.921Z,98021.77
2019-02-04T21:06:36.222Z,98017.41
2019-02-04T21:09:11.416Z,98022.86
2019-02-04T21:11:43.530Z,98019.27
2019-02-04T21:14:14.461Z,98022.67
2019-02-04T21:16:55.807Z,98027.02
2019-02-04T21:19:44.295Z,98031.36
2019-02-04T21:22:15.765Z,98025.57
2019-02-04T21:24:56.301Z,98035.06
2019-02-04T21:27:24.793Z,98028.77
2019-02-04T21:29:57.613Z,98031.05
2019-02-04T21:32:40.429Z,98032.82
2019-02-04T21:35:15.556Z,98025.73
2019-02-04T21:37:52.952Z,98030.41
2019-02-04T21:40:27.478Z,98028.00
2019-02-04T21:43:08.252Z,98028.80
2019-02-04T21:45:44.481Z,98026.04
2019-02-04T21:48:29.130Z,98026.83
2019-02-04T21:51:04.782Z,98021.53
2019-02-04T21:53:37.755Z,98014.44
2019-02-04T21:56:09.322Z,98013.81
2019-02-04T21:58:45.338Z,98010.75
2019-02-04T22:01:24.038Z,98013.67
2019-02-04T22:03:58.394Z,98010.95
2019-02-04T22:06:36.203Z,98011.59
2019-02-04T22:09:13.918Z,98009.66
2019-02-04T22:11:45.462Z,98008.22
2019-02-04T22:14:28.192Z,98004.67
2019-02-04T22:17:06.192Z,98013.70
2019-02-04T22:19:51.378Z,98011.78
2019-02-04T22:22:31.515Z,98010.63
2019-02-04T22:25:19.843Z,98004.39
2019-02-04T22:27:53.164Z,98008.73
2019-02-04T22:30:28.738Z,98007.45
2019-02-04T22:33:10.184Z,98005.22
2019-02-04T22:35:47.333Z,98010.39
2019-02-04T22:38:21.261Z,98009.73
2019-02-04T22:40:52.088Z,98017.49
2019-02-04T22:43:24.965Z,98023.11
2019-02-04T22:46:02.500Z,98025.88
2019-02-04T22:48:36.061Z,98027.81
2019-02-04T22:51:09.020Z,98028.13
2019-02-04T22:53:40.474Z,98029.41
2019-02-04T22:56:12.399Z,98032.47
2019-02-04T22:58:43.817Z,98033.13
2019-02-04T23:01:47.305Z,98031.36
2019-02-04T23:04:18.363Z,98026.86
2019-02-04T23:06:49.984Z,98029.59
2019-02-04T23:09:21.132Z,98033.63
2019-02-04T23:11:52.200Z,98029.10
2019-02-04T23:14:24.054Z,98020.27
2019-02-04T23:17:12.750Z,98029.60
2019-02-04T23:20:00.509Z,98035.37
2019-02-04T23:22:32.905Z,98033.80
2019-02-04T23:25:04.000Z,98042.77
2019-02-04T23:27:35.168Z,98038.12
2019-02-04T23:30:11.392Z,98036.02
2019-02-04T23:32:44.183Z,98034.58
2019-02-04T23:35:16.119Z,98029.42
2019-02-04T23:38:04.859Z,98035.85
2019-02-04T23:40:35.632Z,98031.20
2019-02-04T23:43:06.894Z,98036.97
2019-02-04T23:45:37.924Z,98036.81
2019-02-04T23:48:10.706Z,98031.04
2019-02-04T23:50:41.602Z,98032.80
2019-02-04T23:53:12.375Z,98029.72
2019-02-04T23:55:54.407Z,98029.06
2019-02-04T23:58:16.909Z,98033.55
